Time;durP1;ratioP1;P1;durP2;ratioP2;P2;SDS_P1;SDS_P2;PMS_P1;PMS_P2;Temp;Humidity;BMP_temperature;BMP_pressure;BME280_temperature;BME280_humidity;BME280_pressure;Samples;Min_cycle;Max_cycle;Signal;HPM_P1;HPM_P2
2023/12/23 00:02:01;;;;;;;;;;;;;;;;;;;;;
2023/12/23 00:04:27;;;;;;;0.00;0.00;;;;;;;9.43;92.66;100522.81;4811992;29;20026;-79
2023/12/23 00:06:52;;;;;;;0.00;0.00;;;;;;;9.51;92.70;100534.38;4826806;29;20060;-77
2023/12/23 00:09:18;;;;;;;0.00;0.00;;;;;;;9.63;93.03;100547.88;4810505;29;20546;-78
2023/12/23 00:11:54;;;;;;;0.00;0.00;;;;;;;9.51;93.79;100542.56;4827225;29;20066;-79
2023/12/23 00:14:24;;;;;;;0.00;0.00;;;;;;;9.42;93.98;100521.16;4815191;29;20044;-77
2023/12/23 00:17:07;;;;;;;0.00;0.00;;;;;;;9.68;94.39;100556.09;4834125;29;20034;-78
2023/12/23 00:19:46;;;;;;;0.00;0.00;;;;;;;9.40;95.46;100522.50;4824293;29;20063;-78
2023/12/23 00:22:12;;;;;;;0.00;0.00;;;;;;;9.35;96.64;100508.81;4805433;29;20035;-78
2023/12/23 00:24:38;;;;;;;0.00;0.00;;;;;;;9.55;97.01;100540.94;4822151;29;20038;-78
2023/12/23 00:27:04;;;;;;;0.00;0.00;;;;;;;9.49;96.91;100526.44;4806459;29;20031;-78
2023/12/23 00:29:32;;;;;;;0.00;0.00;;;;;;;9.52;97.08;100545.03;4819678;29;20027;-78
2023/12/23 00:31:57;;;;;;;0.00;0.00;;;;;;;9.57;96.96;100545.06;4808143;29;20026;-79
2023/12/23 00:34:33;;;;;;;0.00;0.00;;;;;;;9.41;97.35;100535.06;4832888;29;20030;-77
2023/12/23 00:36:58;;;;;;;0.00;0.00;;;;;;;9.26;96.80;100527.53;4833666;29;20587;-81
2023/12/23 00:39:24;;;;;;;0.00;0.00;;;;;;;8.98;97.72;100471.25;4819894;29;20026;-78
2023/12/23 00:41:50;;;;;;;0.00;0.00;;;;;;;9.20;97.94;100526.66;4819058;29;20034;-81
2023/12/23 00:44:15;;;;;;;0.00;0.00;;;;;;;8.85;97.54;100484.19;4825242;29;20073;-77
2023/12/23 00:46:46;;;;;;;0.00;0.00;;;;;;;8.87;96.81;100471.13;4832229;29;20040;-78
2023/12/23 00:49:15;;;;;;;0.00;0.00;;;;;;;9.07;96.52;100519.66;4838264;29;20481;-79
2023/12/23 00:51:53;;;;;;;;;;;;;;;;;;;;;
2023/12/23 00:54:19;;;;;;;0.00;0.00;;;;;;;9.24;95.64;100514.16;4812833;29;20027;-77
2023/12/23 00:56:44;;;;;;;0.00;0.00;;;;;;;9.06;95.27;100481.72;4826951;29;20548;-79
2023/12/23 00:59:12;;;;;;;0.00;0.00;;;;;;;9.07;93.97;100486.13;4806279;29;20040;-80
2023/12/23 01:01:37;;;;;;;0.00;0.00;;;;;;;9.13;93.61;100514.28;4829319;29;20065;-79
2023/12/23 01:04:03;;;;;;;0.00;0.00;;;;;;;8.97;93.42;100486.81;4832306;29;20031;-80
2023/12/23 01:06:29;;;;;;;0.00;0.00;;;;;;;9.06;93.39;100490.72;4820693;29;20047;-79
2023/12/23 01:09:13;;;;;;;0.00;0.00;;;;;;;9.27;92.54;100515.53;4828665;29;20039;-80
2023/12/23 01:11:41;;;;;;;0.00;0.00;;;;;;;9.05;91.84;100471.88;4826425;29;20035;-78
2023/12/23 01:14:10;;;;;;;0.00;0.00;;;;;;;9.17;91.25;100478.03;4805841;29;20043;-80
2023/12/23 01:16:35;;;;;;;0.00;0.00;;;;;;;9.25;90.95;100491.22;4804897;29;20030;-78
2023/12/23 01:19:01;;;;;;;0.00;0.00;;;;;;;9.28;90.22;100487.16;4817848;29;20043;-79
2023/12/23 01:21:27;;;;;;;0.00;0.00;;;;;;;9.31;91.08;100474.91;4808715;29;20450;-81
2023/12/23 01:23:58;;;;;;;0.00;0.00;;;;;;;9.35;90.96;100497.88;4817978;29;20052;-81
2023/12/23 01:26:34;;;;;;;0.00;0.00;;;;;;;9.37;90.54;100496.53;4818854;29;20097;-81
2023/12/23 01:29:12;;;;;;;;;;;;;;;;;;;;;
2023/12/23 01:31:54;;;;;;;0.00;0.00;;;;;;;9.26;91.63;100490.16;4813629;29;20577;-80
2023/12/23 01:34:41;;;;;;;;;;;;;;;;;;;;;
2023/12/23 01:37:35;;;;;;;0.00;0.00;;;;;;;9.35;93.34;100489.69;4817054;29;20035;-82
2023/12/23 01:40:35;;;;;;;0.00;0.00;;;;;;;9.57;93.75;100536.88;4808686;29;20023;-80
2023/12/23 01:43:19;;;;;;;0.00;0.00;;;;;;;9.38;94.34;100494.66;4798203;29;20556;-81
2023/12/23 01:45:48;;;;;;;0.00;0.00;;;;;;;9.43;94.48;100500.13;4814117;29;20126;-81
2023/12/23 01:48:24;;;;;;;0.00;0.00;;;;;;;9.45;94.78;100498.00;4826377;29;20046;-80
2023/12/23 01:51:04;;;;;;;;;;;;;;;;;;;;;
2023/12/23 01:53:54;;;;;;;0.00;0.00;;;;;;;9.49;94.29;100490.94;4819884;29;20018;-81
2023/12/23 01:56:47;;;;;;;;;;;;;;;;;;;;;
2023/12/23 01:59:13;;;;;;;0.00;0.00;;;;;;;9.64;94.41;100505.81;4811222;29;20477;-80
2023/12/23 02:01:57;;;;;;;0.00;0.00;;;;;;;9.35;94.21;100446.03;4833634;29;20042;-81
2023/12/23 02:04:33;;;;;;;0.00;0.00;;;;;;;9.59;94.31;100488.31;4827988;29;20083;-79
2023/12/23 02:07:00;;;;;;;0.00;0.00;;;;;;;9.65;94.16;100480.16;4819310;29;20479;-80
2023/12/23 02:09:43;;;;;;;0.00;0.00;;;;;;;9.49;93.64;100436.34;4813824;29;20053;-80
2023/12/23 02:12:22;;;;;;;0.00;0.00;;;;;;;9.81;93.70;100487.41;4827573;29;20466;-79
2023/12/23 02:15:23;;;;;;;0.00;0.00;;;;;;;9.83;93.23;100488.00;4816751;29;20030;-78
2023/12/23 02:18:10;;;;;;;0.00;0.00;;;;;;;9.61;94.15;100464.31;4810085;29;20050;-81
2023/12/23 02:20:56;;;;;;;0.00;0.00;;;;;;;9.58;94.59;100470.28;4814517;29;20577;-81
2023/12/23 02:23:21;;;;;;;0.00;0.00;;;;;;;9.60;94.82;100459.09;4804992;29;20052;-78
2023/12/23 02:26:24;;;;;;;;;;;;;;;;;;;;;
2023/12/23 02:29:02;;;;;;;0.00;0.00;;;;;;;9.40;94.98;100411.44;4813370;29;20043;-78
2023/12/23 02:31:47;;;;;;;0.00;0.00;;;;;;;9.64;94.27;100456.66;4816140;29;20088;-79
2023/12/23 02:34:13;;;;;;;0.00;0.00;;;;;;;9.79;94.63;100489.59;4830505;29;20430;-80
2023/12/23 02:36:43;;;;;;;0.00;0.00;;;;;;;9.75;94.52;100474.78;4820783;29;20026;-76
2023/12/23 02:39:18;;;;;;;0.00;0.00;;;;;;;9.70;95.27;100475.59;4817749;29;20030;-79
2023/12/23 02:41:56;;;;;;;;;;;;;;;;;;;;;
2023/12/23 02:44:22;;;;;;;0.00;0.00;;;;;;;9.76;95.97;100471.81;4808854;29;20032;-77
2023/12/23 02:46:47;;;;;;;0.00;0.00;;;;;;;9.68;96.08;100471.44;4814168;29;20460;-79
2023/12/23 02:49:13;;;;;;;0.00;0.00;;;;;;;9.58;97.25;100464.81;4819890;29;20035;-78
2023/12/23 02:51:38;;;;;;;0.00;0.00;;;;;;;9.53;97.29;100472.94;4792367;29;20112;-80
2023/12/23 02:54:04;;;;;;;0.00;0.00;;;;;;;9.69;97.56;100478.56;4809937;29;20359;-78
2023/12/23 02:56:31;;;;;;;0.00;0.00;;;;;;;9.66;98.48;100479.09;4835672;29;20030;-78
2023/12/23 02:58:57;;;;;;;0.00;0.00;;;;;;;9.59;98.91;100462.91;4811028;29;20035;-77
2023/12/23 03:01:22;;;;;;;0.00;0.00;;;;;;;9.52;99.62;100449.47;4807459;29;20026;-77
2023/12/23 03:03:48;;;;;;;0.00;0.00;;;;;;;9.54;99.14;100471.06;4823611;29;20036;-78
2023/12/23 03:06:24;;;;;;;0.00;0.00;;;;;;;9.59;99.43;100463.75;4796076;29;20031;-78
2023/12/23 03:09:02;;;;;;;0.00;0.00;;;;;;;9.46;99.24;100438.75;4820563;29;20034;-78
2023/12/23 03:11:27;;;;;;;0.00;0.00;;;;;;;9.45;99.01;100440.69;4806649;29;20033;-77
2023/12/23 03:13:53;;;;;;;0.00;0.00;;;;;;;9.60;99.49;100461.84;4818712;29;20027;-76
2023/12/23 03:16:19;;;;;;;0.00;0.00;;;;;;;9.67;98.91;100478.03;4812424;29;20696;-77
2023/12/23 03:18:47;;;;;;;0.00;0.00;;;;;;;9.63;99.16;100461.31;4829295;29;20045;-79
2023/12/23 03:21:16;;;;;;;0.00;0.00;;;;;;;9.83;98.13;100481.69;4842998;29;20018;-78
2023/12/23 03:24:04;;;;;;;0.00;0.00;;;;;;;9.83;98.48;100471.59;4830070;29;20293;-78
2023/12/23 03:26:40;;;;;;;0.00;0.00;;;;;;;9.88;97.80;100493.47;4828210;29;20046;-77
2023/12/23 03:29:26;;;;;;;0.00;0.00;;;;;;;9.61;97.85;100436.19;4849111;29;20034;-77
2023/12/23 03:32:10;;;;;;;0.00;0.00;;;;;;;9.71;97.69;100451.81;4824615;29;20035;-77
2023/12/23 03:34:43;;;;;;;0.00;0.00;;;;;;;9.70;97.95;100442.81;4836820;29;20034;-77
2023/12/23 03:37:14;;;;;;;0.00;0.00;;;;;;;9.69;98.25;100448.53;4830370;29;20119;-78
2023/12/23 03:39:57;;;;;;;0.00;0.00;;;;;;;9.91;98.30;100479.31;4826603;29;20030;-78
2023/12/23 03:42:26;;;;;;;0.00;0.00;;;;;;;9.73;97.36;100438.75;4840176;29;20036;-78
2023/12/23 03:45:20;;;;;;;0.00;0.00;;;;;;;9.86;97.63;100471.09;4825580;29;20459;-79
2023/12/23 03:47:56;;;;;;;0.00;0.00;;;;;;;9.92;97.06;100463.75;4822198;29;20026;-78
2023/12/23 03:50:35;;;;;;;0.00;0.00;;;;;;;10.04;96.88;100482.69;4817172;29;20731;-78
2023/12/23 03:53:01;;;;;;;0.00;0.00;;;;;;;9.73;96.42;100444.22;4836002;29;20038;-79
2023/12/23 03:55:39;;;;;;;0.00;0.00;;;;;;;9.82;96.54;100441.81;4810689;29;20042;-77
2023/12/23 03:58:15;;;;;;;0.00;0.00;;;;;;;9.83;97.07;100449.75;4824093;29;20026;-81
2023/12/23 04:00:44;;;;;;;0.00;0.00;;;;;;;9.73;97.14;100433.28;4836726;29;20038;-79
2023/12/23 04:03:33;;;;;;;;;;;;;;;;;;;;;
2023/12/23 04:06:02;;;;;;;0.00;0.00;;;;;;;10.07;96.92;100472.06;4817781;29;20126;-79
2023/12/23 04:08:28;;;;;;;0.00;0.00;;;;;;;9.93;96.57;100444.38;4814016;29;20054;-79
2023/12/23 04:11:02;;;;;;;0.00;0.00;;;;;;;9.72;96.11;100409.78;4838964;29;20366;-78
2023/12/23 04:13:29;;;;;;;0.00;0.00;;;;;;;10.07;95.19;100457.59;4809078;29;20369;-80
2023/12/23 04:15:54;;;;;;;0.00;0.00;;;;;;;10.17;94.70;100470.50;4807692;29;20038;-77
2023/12/23 04:18:23;;;;;;;0.00;0.00;;;;;;;9.99;94.18;100447.97;4827026;29;20026;-78
2023/12/23 04:20:59;;;;;;;0.00;0.00;;;;;;;10.06;93.76;100445.00;4813691;29;20026;-79
2023/12/23 04:23:27;;;;;;;0.00;0.00;;;;;;;10.14;92.69;100452.72;4827963;29;20084;-78
2023/12/23 04:26:13;;;;;;;0.00;0.00;;;;;;;10.19;93.46;100452.78;4823107;29;20042;-78
2023/12/23 04:28:38;;;;;;;0.00;0.00;;;;;;;10.15;93.16;100443.44;4829196;29;20039;-77
2023/12/23 04:31:07;;;;;;;0.00;0.00;;;;;;;10.14;92.86;100436.31;4810124;29;20043;-76
2023/12/23 04:33:36;;;;;;;0.00;0.00;;;;;;;10.13;92.67;100440.13;4821627;29;20038;-78
2023/12/23 04:36:11;;;;;;;;;;;;;;;;;;;;;
2023/12/23 04:38:38;;;;;;;0.00;0.00;;;;;;;10.07;92.80;100416.59;4813940;29;20039;-77
2023/12/23 04:41:03;;;;;;;0.00;0.00;;;;;;;9.95;92.88;100403.94;4823183;29;20118;-77
2023/12/23 04:43:31;;;;;;;0.00;0.00;;;;;;;9.82;92.54;100393.47;4822773;29;20044;-78
2023/12/23 04:45:57;;;;;;;0.00;0.00;;;;;;;9.92;92.96;100404.47;4811470;29;20457;-80
2023/12/23 04:48:31;;;;;;;0.00;0.00;;;;;;;9.85;92.68;100403.88;4823677;29;20060;-79
2023/12/23 04:50:58;;;;;;;0.00;0.00;;;;;;;9.81;92.47;100394.56;4796581;29;20451;-80
2023/12/23 04:53:24;;;;;;;0.00;0.00;;;;;;;9.66;92.37;100373.41;4805065;29;20030;-77
2023/12/23 04:55:52;;;;;;;0.00;0.00;;;;;;;9.81;92.62;100424.59;4821234;29;20088;-77
2023/12/23 04:58:20;;;;;;;0.00;0.00;;;;;;;9.51;93.57;100406.88;4822816;29;20022;-77
2023/12/23 05:00:48;;;;;;;0.00;0.00;;;;;;;9.23;95.24;100386.97;4837690;29;20046;-77
2023/12/23 05:03:13;;;;;;;0.00;0.00;;;;;;;9.16;95.21;100391.00;4827506;29;20030;-78
2023/12/23 05:05:41;;;;;;;0.00;0.00;;;;;;;9.08;96.19;100378.63;4824330;29;20037;-78
2023/12/23 05:08:06;;;;;;;0.00;0.00;;;;;;;9.16;95.90;100391.81;4832719;29;20050;-77
2023/12/23 05:10:32;;;;;;;0.00;0.00;;;;;;;9.04;96.13;100374.78;4826321;29;20033;-77
2023/12/23 05:13:00;;;;;;;0.00;0.00;;;;;;;9.04;96.29;100382.97;4821738;29;20122;-79
2023/12/23 05:15:28;;;;;;;0.00;0.00;;;;;;;8.98;95.84;100382.09;4802037;29;20034;-78
2023/12/23 05:17:58;;;;;;;0.00;0.00;;;;;;;9.04;96.10;100399.34;4823548;29;20022;-78
2023/12/23 05:20:34;;;;;;;;;;;;;;;;;;;;;
2023/12/23 05:23:00;;;;;;;0.00;0.00;;;;;;;8.98;95.84;100405.78;4815544;29;20056;-78
2023/12/23 05:25:28;;;;;;;0.00;0.00;;;;;;;9.08;95.06;100422.28;4805452;29;20461;-77
2023/12/23 05:27:53;;;;;;;0.00;0.00;;;;;;;9.09;95.01;100402.09;4824607;29;20034;-78
2023/12/23 05:30:18;;;;;;;0.00;0.00;;;;;;;8.95;95.21;100392.66;4831971;29;20031;-77
2023/12/23 05:32:54;;;;;;;;;;;;;;;;;;;;;
2023/12/23 05:35:20;;;;;;;0.00;0.00;;;;;;;9.06;95.23;100387.06;4815576;29;20506;-77
2023/12/23 05:37:45;;;;;;;0.00;0.00;;;;;;;9.12;95.50;100401.59;4817787;29;20030;-76
2023/12/23 05:40:11;;;;;;;0.00;0.00;;;;;;;9.08;95.92;100403.19;4827069;29;20452;-77
2023/12/23 05:42:39;;;;;;;0.00;0.00;;;;;;;9.03;96.04;100400.41;4796605;29;20034;-77
2023/12/23 05:45:07;;;;;;;0.00;0.00;;;;;;;9.08;95.60;100389.53;4818610;29;20054;-78
2023/12/23 05:47:32;;;;;;;0.00;0.00;;;;;;;9.01;95.19;100378.00;4823874;29;20378;-77
2023/12/23 05:49:57;;;;;;;0.00;0.00;;;;;;;9.02;94.97;100385.13;4820863;29;20114;-78
2023/12/23 05:52:23;;;;;;;0.00;0.00;;;;;;;9.05;95.10;100368.22;4810370;29;20022;-78
2023/12/23 05:54:51;;;;;;;0.00;0.00;;;;;;;9.00;95.14;100370.91;4808143;29;20478;-78
2023/12/23 05:57:16;;;;;;;0.00;0.00;;;;;;;8.89;95.21;100354.44;4801372;29;20034;-79
2023/12/23 05:59:44;;;;;;;0.00;0.00;;;;;;;8.86;95.28;100348.66;4806973;29;20023;-77
2023/12/23 06:02:09;;;;;;;0.00;0.00;;;;;;;8.93;95.34;100373.03;4803166;29;20038;-78
2023/12/23 06:04:35;;;;;;;0.00;0.00;;;;;;;8.96;95.04;100383.41;4812135;29;20540;-78
2023/12/23 06:07:00;;;;;;;0.00;0.00;;;;;;;9.08;95.16;100378.63;4816098;29;20068;-78
2023/12/23 06:09:26;;;;;;;0.00;0.00;;;;;;;9.23;95.35;100402.53;4818431;29;20027;-79
2023/12/23 06:11:52;;;;;;;0.00;0.00;;;;;;;9.18;94.71;100373.28;4807859;29;20070;-78
2023/12/23 06:14:17;;;;;;;0.00;0.00;;;;;;;9.25;94.54;100370.34;4830505;29;20022;-79
2023/12/23 06:16:43;;;;;;;0.00;0.00;;;;;;;9.40;94.16;100395.06;4819913;29;20026;-77
2023/12/23 06:19:16;;;;;;;0.00;0.00;;;;;;;9.35;94.07;100395.00;4837161;29;20118;-78
2023/12/23 06:21:48;;;;;;;0.00;0.00;;;;;;;9.15;94.15;100346.50;4816078;29;21293;-80
2023/12/23 06:24:14;;;;;;;0.00;0.00;;;;;;;9.20;95.20;100367.56;4815079;29;20565;-77
2023/12/23 06:26:40;;;;;;;0.00;0.00;;;;;;;9.16;95.27;100355.53;4829713;29;20047;-77
2023/12/23 06:29:10;;;;;;;0.00;0.00;;;;;;;9.29;95.60;100365.19;4811685;29;20031;-77
2023/12/23 06:31:37;;;;;;;0.00;0.00;;;;;;;9.24;94.92;100366.81;4820302;29;20027;-78
2023/12/23 06:34:04;;;;;;;0.00;0.00;;;;;;;9.38;95.43;100380.84;4807227;29;20030;-77
2023/12/23 06:36:30;;;;;;;0.00;0.00;;;;;;;9.37;94.97;100354.59;4828309;29;20405;-78
2023/12/23 06:39:05;;;;;;;0.00;0.00;;;;;;;9.60;93.78;100371.75;4803572;29;20040;-78
2023/12/23 06:41:48;;;;;;;0.00;0.00;;;;;;;9.47;93.47;100321.13;4820049;29;20029;-79
2023/12/23 06:44:18;;;;;;;0.00;0.00;;;;;;;9.65;93.43;100343.66;4824788;29;20039;-77
2023/12/23 06:46:56;;;;;;;0.00;0.00;;;;;;;9.89;93.04;100374.97;4824504;29;20033;-78
2023/12/23 06:49:23;;;;;;;0.00;0.00;;;;;;;9.94;92.60;100374.16;4819007;29;20383;-79
2023/12/23 06:51:49;;;;;;;0.00;0.00;;;;;;;9.71;92.52;100321.59;4835979;29;20177;-78
2023/12/23 06:54:26;;;;;;;0.00;0.00;;;;;;;9.69;93.04;100328.41;4822564;29;20026;-79
2023/12/23 06:56:52;;;;;;;0.00;0.00;;;;;;;9.89;93.13;100353.09;4824101;29;20045;-78
2023/12/23 06:59:20;;;;;;;0.00;0.00;;;;;;;9.64;93.11;100303.78;4832160;29;20031;-77
2023/12/23 07:01:48;;;;;;;0.00;0.00;;;;;;;9.94;92.83;100375.00;4822538;29;20053;-77
2023/12/23 07:04:14;;;;;;;0.00;0.00;;;;;;;9.71;93.25;100353.50;4828062;29;20059;-77
2023/12/23 07:06:41;;;;;;;0.00;0.00;;;;;;;9.77;93.68;100360.69;4830947;29;20164;-79
2023/12/23 07:09:07;;;;;;;0.00;0.00;;;;;;;9.76;92.75;100353.56;4825272;29;20121;-77
2023/12/23 07:11:37;;;;;;;0.00;0.00;;;;;;;9.74;92.32;100350.28;4812224;29;20835;-79
2023/12/23 07:14:18;;;;;;;;;;;;;;;;;;;;;
2023/12/23 07:16:44;;;;;;;0.00;0.00;;;;;;;9.95;92.40;100365.69;4810645;29;20407;-77
2023/12/23 07:19:22;;;;;;;;;;;;;;;;;;;;;
2023/12/23 07:21:52;;;;;;;0.00;0.00;;;;;;;10.09;90.57;100387.09;4814913;29;20022;-76
2023/12/23 07:24:21;;;;;;;0.00;0.00;;;;;;;9.90;90.55;100345.72;4826792;29;20490;-78
2023/12/23 07:26:52;;;;;;;0.00;0.00;;;;;;;9.98;91.63;100347.16;4816515;29;20081;-76
2023/12/23 07:29:19;;;;;;;0.00;0.00;;;;;;;9.98;92.09;100363.53;4807501;29;20037;-76
2023/12/23 07:32:52;;;;;;;;;;;;;;;;;;;;;
2023/12/23 07:35:18;;;;;;;0.00;0.00;;;;;;;10.03;92.50;100371.75;4820772;29;20054;-78
2023/12/23 07:37:44;;;;;;;0.00;0.00;;;;;;;9.84;91.74;100341.31;4808459;29;20569;-77
2023/12/23 07:40:10;;;;;;;0.00;0.00;;;;;;;9.81;92.78;100347.31;4817023;29;20022;-77
2023/12/23 07:42:54;;;;;;;0.00;0.00;;;;;;;9.89;93.00;100366.75;4812220;29;20037;-77
2023/12/23 07:45:56;;;;;;;0.00;0.00;;;;;;;9.57;94.94;100326.66;4830901;29;20031;-77
2023/12/23 07:48:42;;;;;;;0.00;0.00;;;;;;;9.72;95.56;100350.53;4833151;29;20057;-76
2023/12/23 07:51:10;;;;;;;0.00;0.00;;;;;;;9.56;97.51;100335.97;4830618;29;20108;-77
2023/12/23 07:54:06;;;;;;;;;;;;;;;;;;;;;
2023/12/23 07:56:31;;;;;;;0.00;0.00;;;;;;;9.20;100.00;100308.38;4817401;29;20033;-77
2023/12/23 07:59:10;;;;;;;0.00;0.00;;;;;;;8.93;100.00;100288.47;4804476;29;20565;-80
2023/12/23 08:01:46;;;;;;;0.00;0.00;;;;;;;9.18;100.00;100337.00;4810067;29;20457;-78
2023/12/23 08:04:19;;;;;;;0.00;0.00;;;;;;;9.17;100.00;100355.28;4823418;29;20817;-80
2023/12/23 08:06:55;;;;;;;0.10;0.10;;;;;;;9.05;100.00;100330.03;4817831;29;20030;-80
2023/12/23 08:09:21;;;;;;;0.00;0.00;;;;;;;8.99;100.00;100325.63;4806754;29;20040;-79
2023/12/23 08:11:49;;;;;;;0.00;0.00;;;;;;;8.96;100.00;100347.97;4832317;29;20030;-77
2023/12/23 08:15:07;;;;;;;0.00;0.00;;;;;;;8.84;100.00;100380.84;4803162;29;20026;-82
2023/12/23 08:17:50;;;;;;;0.00;0.00;;;;;;;8.48;100.00;100383.94;4805527;29;20486;-79
2023/12/23 08:20:21;;;;;;;0.00;0.00;;;;;;;8.21;100.00;100360.13;4826295;29;20039;-75
2023/12/23 08:23:07;;;;;;;0.00;0.00;;;;;;;8.29;100.00;100394.28;4815047;29;20068;-80
2023/12/23 08:25:32;;;;;;;0.00;0.00;;;;;;;8.15;100.00;100391.13;4800417;29;20035;-81
2023/12/23 08:28:18;;;;;;;0.00;0.00;;;;;;;8.37;100.00;100417.56;4806709;29;20622;-78
2023/12/23 08:30:43;;;;;;;0.00;0.00;;;;;;;8.21;100.00;100408.34;4803763;29;20043;-76
2023/12/23 08:33:09;;;;;;;0.00;0.00;;;;;;;8.21;100.00;100409.16;4836722;29;20462;-79
2023/12/23 08:35:34;;;;;;;0.00;0.00;;;;;;;8.33;100.00;100424.59;4812297;29;20134;-77
2023/12/23 08:38:00;;;;;;;0.00;0.00;;;;;;;8.20;100.00;100393.06;4826140;29;20037;-76
2023/12/23 08:40:26;;;;;;;0.00;0.00;;;;;;;8.14;100.00;100408.53;4825469;29;20027;-76
2023/12/23 08:42:56;;;;;;;0.05;0.05;;;;;;;8.11;100.00;100403.56;4809813;29;20049;-77
2023/12/23 08:45:21;;;;;;;0.00;0.00;;;;;;;8.29;100.00;100426.16;4803248;29;20038;-77
2023/12/23 08:47:52;;;;;;;0.00;0.00;;;;;;;7.95;100.00;100405.25;4810443;29;20102;-76
2023/12/23 08:50:18;;;;;;;0.00;0.00;;;;;;;7.91;100.00;100406.00;4830317;29;20034;-77
2023/12/23 08:52:43;;;;;;;0.00;0.00;;;;;;;7.90;100.00;100401.63;4820389;29;20478;-76
2023/12/23 08:55:09;;;;;;;0.00;0.00;;;;;;;8.03;100.00;100428.50;4814908;29;20091;-77
2023/12/23 08:57:36;;;;;;;0.00;0.00;;;;;;;8.05;100.00;100412.75;4821645;29;20034;-77
2023/12/23 09:00:02;;;;;;;0.00;0.00;;;;;;;7.93;100.00;100406.56;4816637;29;20113;-76
2023/12/23 09:02:30;;;;;;;0.00;0.00;;;;;;;7.98;100.00;100382.97;4825060;29;20088;-77
2023/12/23 09:05:01;;;;;;;0.00;0.00;;;;;;;8.19;100.00;100383.25;4825553;29;20030;-76
2023/12/23 09:07:26;;;;;;;0.00;0.00;;;;;;;8.17;100.00;100363.63;4816866;29;20141;-77
2023/12/23 09:09:52;;;;;;;0.10;0.10;;;;;;;8.34;100.00;100383.47;4818661;29;20042;-76
2023/12/23 09:12:19;;;;;;;0.00;0.00;;;;;;;8.44;100.00;100377.38;4823294;29;20058;-76
2023/12/23 09:14:45;;;;;;;0.00;0.00;;;;;;;8.28;100.00;100364.56;4818689;29;20375;-77
2023/12/23 09:17:13;;;;;;;0.00;0.00;;;;;;;8.29;100.00;100349.88;4815114;29;20036;-76
2023/12/23 09:19:39;;;;;;;0.00;0.00;;;;;;;8.26;100.00;100329.41;4808046;29;20034;-78
2023/12/23 09:22:04;;;;;;;0.00;0.00;;;;;;;8.38;100.00;100332.84;4814429;29;20029;-77
2023/12/23 09:24:29;;;;;;;0.00;0.00;;;;;;;8.51;100.00;100318.03;4821346;29;20045;-76
2023/12/23 09:26:55;;;;;;;0.00;0.00;;;;;;;8.66;100.00;100322.00;4829488;29;20125;-77
2023/12/23 09:29:21;;;;;;;0.00;0.00;;;;;;;8.80;100.00;100323.25;4808024;29;20478;-77
2023/12/23 09:31:55;;;;;;;0.00;0.00;;;;;;;8.85;100.00;100315.13;4806566;29;20051;-77
2023/12/23 09:34:20;;;;;;;0.00;0.00;;;;;;;8.86;100.00;100327.69;4816306;29;20742;-77
2023/12/23 09:36:46;;;;;;;0.00;0.00;;;;;;;8.97;100.00;100300.53;4813245;29;20138;-79
2023/12/23 09:39:12;;;;;;;0.00;0.00;;;;;;;9.03;100.00;100302.22;4817327;29;20044;-76
2023/12/23 09:41:39;;;;;;;0.00;0.00;;;;;;;8.94;100.00;100295.59;4826333;29;20027;-77
2023/12/23 09:44:07;;;;;;;0.00;0.00;;;;;;;9.06;100.00;100282.59;4812781;29;20175;-76
2023/12/23 09:46:37;;;;;;;0.00;0.00;;;;;;;9.07;100.00;100286.97;4798837;29;20049;-78
2023/12/23 09:49:05;;;;;;;0.00;0.00;;;;;;;9.46;99.51;100319.47;4823815;29;20227;-76
2023/12/23 09:51:34;;;;;;;0.00;0.00;;;;;;;9.46;98.33;100324.94;4804294;29;20402;-77
2023/12/23 09:54:02;;;;;;;0.00;0.00;;;;;;;9.36;97.63;100309.31;4817236;29;20038;-76
2023/12/23 09:56:29;;;;;;;0.00;0.00;;;;;;;9.30;98.10;100326.75;4801982;29;20026;-76
2023/12/23 09:58:55;;;;;;;0.00;0.00;;;;;;;9.39;97.50;100341.53;4807201;29;20030;-76
2023/12/23 10:01:27;;;;;;;0.00;0.00;;;;;;;9.38;97.93;100350.00;4824716;29;20497;-76
2023/12/23 10:03:53;;;;;;;0.00;0.00;;;;;;;9.16;99.59;100350.06;4825001;29;20402;-76
2023/12/23 10:06:19;;;;;;;0.00;0.00;;;;;;;9.17;99.79;100343.50;4817166;29;20031;-77
2023/12/23 10:08:44;;;;;;;0.00;0.00;;;;;;;9.22;99.41;100340.84;4824223;29;20055;-76
2023/12/23 10:11:10;;;;;;;0.00;0.00;;;;;;;9.40;99.08;100369.66;4806421;29;20129;-77
2023/12/23 10:13:39;;;;;;;0.00;0.00;;;;;;;9.48;98.32;100366.47;4807171;29;20486;-77
2023/12/23 10:16:06;;;;;;;0.00;0.00;;;;;;;9.53;97.87;100368.41;4832961;29;20046;-77
2023/12/23 10:18:38;;;;;;;0.00;0.00;;;;;;;9.48;97.03;100350.09;4789677;29;20034;-77
2023/12/23 10:21:26;;;;;;;;;;;;;;;;;;;;;
2023/12/23 10:24:01;;;;;;;0.00;0.00;;;;;;;9.77;95.29;100347.84;4800929;29;20046;-78
2023/12/23 10:27:18;;;;;;;0.00;0.00;;;;;;;9.88;93.63;100354.19;4819553;29;20058;-76
2023/12/23 10:30:13;;;;;;;0.00;0.00;;;;;;;9.88;92.81;100356.91;4808743;29;20030;-76
2023/12/23 10:33:02;;;;;;;0.00;0.00;;;;;;;9.90;92.26;100346.56;4807667;29;20058;-76
2023/12/23 10:36:15;;;;;;;;;;;;;;;;;;;;;
2023/12/23 10:38:53;;;;;;;0.00;0.00;;;;;;;9.95;91.89;100349.31;4810587;29;20023;-77
2023/12/23 10:41:39;;;;;;;0.00;0.00;;;;;;;10.00;91.00;100361.38;4824066;29;20023;-78
2023/12/23 10:44:06;;;;;;;0.00;0.00;;;;;;;9.89;91.52;100355.84;4826882;29;20030;-77
2023/12/23 10:46:50;;;;;;;0.00;0.00;;;;;;;9.72;90.88;100316.94;4813636;29;20026;-76
2023/12/23 10:49:17;;;;;;;0.00;0.00;;;;;;;9.93;90.11;100356.97;4815295;29;20027;-76
2023/12/23 10:51:48;;;;;;;0.00;0.00;;;;;;;10.22;89.53;100361.22;4808115;29;20354;-77
2023/12/23 10:54:24;;;;;;;0.00;0.00;;;;;;;10.31;87.49;100341.31;4804983;29;20045;-77
2023/12/23 10:56:54;;;;;;;0.00;0.00;;;;;;;10.50;86.52;100326.38;4827655;29;20102;-78
2023/12/23 10:59:37;;;;;;;0.00;0.00;;;;;;;11.38;80.18;100300.00;4820266;29;20082;-77
2023/12/23 11:02:12;;;;;;;0.00;0.00;;;;;;;12.18;76.98;100326.75;4806030;29;20034;-76
2023/12/23 11:04:42;;;;;;;0.00;0.00;;;;;;;12.62;74.88;100292.28;4811855;29;20035;-78
2023/12/23 11:07:13;;;;;;;0.00;0.00;;;;;;;14.24;68.72;100326.06;4818016;29;20091;-81
2023/12/23 11:09:51;;;;;;;0.00;0.00;;;;;;;14.37;65.41;100288.78;4805114;29;20100;-76
2023/12/23 11:12:17;;;;;;;0.00;0.00;;;;;;;13.26;66.13;100285.78;4820945;29;20121;-80
2023/12/23 11:14:50;;;;;;;0.00;0.00;;;;;;;12.21;71.24;100288.59;4823948;29;20065;-77
2023/12/23 11:17:41;;;;;;;0.00;0.00;;;;;;;11.43;75.42;100297.25;4826586;29;20733;-76
2023/12/23 11:20:30;;;;;;;0.00;0.00;;;;;;;11.11;78.12;100320.22;4810497;29;20087;-76
2023/12/23 11:23:24;;;;;;;0.00;0.00;;;;;;;10.88;80.79;100355.22;4826330;29;20035;-77
2023/12/23 11:25:50;;;;;;;0.00;0.00;;;;;;;10.61;82.73;100344.47;4805544;29;20032;-76
2023/12/23 11:28:21;;;;;;;0.00;0.00;;;;;;;10.63;83.47;100354.06;4808657;29;20035;-77
2023/12/23 11:30:54;;;;;;;0.00;0.00;;;;;;;10.59;84.21;100347.47;4810676;29;20078;-77
2023/12/23 11:33:28;;;;;;;0.00;0.00;;;;;;;10.52;84.57;100330.50;4825666;29;20046;-76
2023/12/23 11:36:30;;;;;;;0.00;0.00;;;;;;;10.56;84.20;100314.41;4811287;29;20452;-77
2023/12/23 11:39:16;;;;;;;0.00;0.00;;;;;;;10.82;82.71;100345.38;4831822;29;20037;-79
2023/12/23 11:41:47;;;;;;;0.00;0.00;;;;;;;10.55;81.72;100297.16;4822671;29;20026;-77
2023/12/23 11:44:18;;;;;;;0.00;0.00;;;;;;;10.88;81.67;100316.94;4809395;29;20160;-76
2023/12/23 11:46:44;;;;;;;0.00;0.00;;;;;;;11.15;80.39;100354.19;4821493;29;20058;-77
2023/12/23 11:49:39;;;;;;;0.00;0.00;;;;;;;11.18;78.93;100353.63;4818725;29;20031;-77
2023/12/23 11:52:15;;;;;;;;;;;;;;;;;;;;;
2023/12/23 11:55:00;;;;;;;0.00;0.00;;;;;;;11.16;77.67;100312.03;4808671;29;20551;-78
2023/12/23 11:57:51;;;;;;;0.00;0.00;;;;;;;11.31;78.31;100347.63;4825727;29;20049;-77
2023/12/23 12:00:47;;;;;;;;;;;;;;;;;;;;;
2023/12/23 12:03:26;;;;;;;0.00;0.00;;;;;;;11.61;76.68;100324.09;4815258;29;20053;-78
2023/12/23 12:06:03;;;;;;;0.00;0.00;;;;;;;11.70;76.66;100343.53;4832763;29;20079;-76
2023/12/23 12:11:19;;;;;;;0.00;0.00;;;;;;;11.03;79.00;100307.09;4817895;29;20052;-76
2023/12/23 12:13:46;;;;;;;0.00;0.00;;;;;;;10.99;80.45;100324.06;4820011;29;20714;-77
2023/12/23 12:16:11;;;;;;;0.00;0.00;;;;;;;11.07;80.91;100341.03;4829705;29;20107;-75
2023/12/23 12:18:39;;;;;;;0.00;0.00;;;;;;;10.97;81.18;100309.00;4822308;29;20038;-75
2023/12/23 12:21:05;;;;;;;0.00;0.00;;;;;;;10.89;81.89;100324.03;4823046;29;20076;-75
2023/12/23 12:23:30;;;;;;;0.00;0.00;;;;;;;10.80;82.65;100314.72;4814506;29;20039;-74
2023/12/23 12:25:57;;;;;;;0.00;0.00;;;;;;;10.85;83.57;100322.94;4817340;29;20046;-77